Windward — WDG2428 — position and weather

sailwx.info

Track history (hours):
 
Tides and Currents Weather Stations Pressure Air Temp Water Temp Dewpoint Dewpoint Depression Visibility Wind Speed Wind Dir Waves Ship Positions

Windward

Owner: BASHAW, IAN D, Green Cove Springs, FL. More information available from US FCC via Universal Licensing System and Coast Guard Vessel Documentation Center.

Last reported at 2018-Mar-22 12:31 UTC. Time now 2018-Jun-19 06:45 UTC.
Position N 24°19' W 076°33'.
Warning: this ship's position is months out of date.

Length 17 m.

Type: Sailing vessel. MMSI: 367515560.

Date/timePositionNaut miles runAvg speedWind from/ knotsBaromVisibWave heightAir tempDewpointWater temp
2018-Mar-22 12:31N 24°19' W 076°33'0 1.1
2018-Mar-22 12:28N 24°19' W 076°33'1 1.0
2018-Mar-22 11:58N 24°19' W 076°33'0 0.0
2018-Mar-22 11:27N 24°19' W 076°33'0 0.0
2018-Mar-20 18:17N 24°19' W 076°33'0 0.0
2018-Mar-20 17:59N 24°19' W 076°33'1 2.6
2018-Mar-20 17:29N 24°18' W 076°32'2 4.9
2018-Mar-20 17:00N 24°17' W 076°30'3 6.8
2018-Mar-20 16:30N 24°14' W 076°28'3 6.8
2018-Mar-20 16:00N 24°11' W 076°26'7 0.1
2018-Mar-18 14:07N 24°05' W 076°22'1 5.9
2018-Mar-18 13:59N 24°06' W 076°23'3 6.4
2018-Mar-18 13:27N 24°09' W 076°24'2 5.0
2018-Mar-18 13:00N 24°11' W 076°25'2 3.0
2018-Mar-18 12:30N 24°10' W 076°27'1 2.2
2018-Mar-18 12:00N 24°11' W 076°27'  
2018-Mar-15 15:36N 24°11' W 076°27'0 0.1
2018-Mar-15 15:30N 24°11' W 076°27'2 4.4
2018-Mar-15 15:00N 24°10' W 076°29'2 4.6
2018-Mar-15 14:30N 24°08' W 076°27'3 6.3
2018-Mar-15 14:00N 24°06' W 076°24'  
Track history (hours):
 
Tides and Currents Weather Stations Pressure Air Temp Water Temp Dewpoint Dewpoint Depression Visibility Wind Speed Wind Dir Waves Ship Positions

Windward

Owner: BASHAW, IAN D, Green Cove Springs, FL. More information available from US FCC via Universal Licensing System and Coast Guard Vessel Documentation Center.

Last reported at 2018-Mar-22 12:31 UTC. Time now 2018-Jun-19 06:45 UTC.
Position N 24°19' W 076°33'.
Warning: this ship's position is months out of date.

Length 17 m.

Type: Sailing vessel. MMSI: 367515560.

Date/timePositionNaut miles runAvg speedWind from/ knotsBaromVisibWave heightAir tempDewpointWater temp
2018-Mar-22 12:31N 24°19' W 076°33'0 1.1
2018-Mar-22 12:28N 24°19' W 076°33'1 1.0
2018-Mar-22 11:58N 24°19' W 076°33'0 0.0
2018-Mar-22 11:27N 24°19' W 076°33'0 0.0
2018-Mar-20 18:17N 24°19' W 076°33'0 0.0
2018-Mar-20 17:59N 24°19' W 076°33'1 2.6
2018-Mar-20 17:29N 24°18' W 076°32'2 4.9
2018-Mar-20 17:00N 24°17' W 076°30'3 6.8
2018-Mar-20 16:30N 24°14' W 076°28'3 6.8
2018-Mar-20 16:00N 24°11' W 076°26'7 0.1
2018-Mar-18 14:07N 24°05' W 076°22'1 5.9
2018-Mar-18 13:59N 24°06' W 076°23'3 6.4
2018-Mar-18 13:27N 24°09' W 076°24'2 5.0
2018-Mar-18 13:00N 24°11' W 076°25'2 3.0
2018-Mar-18 12:30N 24°10' W 076°27'1 2.2
2018-Mar-18 12:00N 24°11' W 076°27'  
2018-Mar-15 15:36N 24°11' W 076°27'0 0.1
2018-Mar-15 15:30N 24°11' W 076°27'2 4.4
2018-Mar-15 15:00N 24°10' W 076°29'2 4.6
2018-Mar-15 14:30N 24°08' W 076°27'3 6.3
2018-Mar-15 14:00N 24°06' W 076°24'  

Dump ship's entire track history